sensor_id;sensor_type;location;lat;lon;timestamp;P1;durP1;ratioP1;P2;durP2;ratioP2
18838;SDS011;9548;56.920;14.804;2023-04-24T00:01:06;316.63;;;16.80;;
18838;SDS011;9548;56.920;14.804;2023-04-24T00:03:34;429.38;;;18.38;;
18838;SDS011;9548;56.920;14.804;2023-04-24T00:06:02;381.02;;;17.83;;
18838;SDS011;9548;56.920;14.804;2023-04-24T00:08:30;349.08;;;16.85;;
18838;SDS011;9548;56.920;14.804;2023-04-24T00:10:57;431.08;;;16.95;;
18838;SDS011;9548;56.920;14.804;2023-04-24T00:13:24;398.27;;;16.98;;
18838;SDS011;9548;56.920;14.804;2023-04-24T00:15:51;427.25;;;17.60;;
18838;SDS011;9548;56.920;14.804;2023-04-24T00:18:18;200.77;;;13.75;;
18838;SDS011;9548;56.920;14.804;2023-04-24T00:20:45;303.92;;;14.35;;
18838;SDS011;9548;56.920;14.804;2023-04-24T00:23:13;294.77;;;15.88;;
18838;SDS011;9548;56.920;14.804;2023-04-24T00:25:40;139.93;;;12.07;;
18838;SDS011;9548;56.920;14.804;2023-04-24T00:28:07;161.27;;;12.68;;
18838;SDS011;9548;56.920;14.804;2023-04-24T00:30:34;158.13;;;12.48;;
18838;SDS011;9548;56.920;14.804;2023-04-24T00:33:01;170.57;;;12.68;;
18838;SDS011;9548;56.920;14.804;2023-04-24T00:35:28;189.77;;;13.45;;
18838;SDS011;9548;56.920;14.804;2023-04-24T00:37:55;175.18;;;12.77;;
18838;SDS011;9548;56.920;14.804;2023-04-24T00:40:24;188.77;;;13.70;;
18838;SDS011;9548;56.920;14.804;2023-04-24T00:42:50;156.50;;;12.93;;
18838;SDS011;9548;56.920;14.804;2023-04-24T00:45:18;222.90;;;14.02;;
18838;SDS011;9548;56.920;14.804;2023-04-24T00:47:45;173.73;;;13.35;;
18838;SDS011;9548;56.920;14.804;2023-04-24T00:50:14;347.27;;;15.10;;
18838;SDS011;9548;56.920;14.804;2023-04-24T00:52:42;148.23;;;12.73;;
18838;SDS011;9548;56.920;14.804;2023-04-24T00:55:09;186.15;;;13.90;;
18838;SDS011;9548;56.920;14.804;2023-04-24T00:57:37;298.65;;;15.40;;
18838;SDS011;9548;56.920;14.804;2023-04-24T01:00:05;219.10;;;14.20;;
18838;SDS011;9548;56.920;14.804;2023-04-24T01:02:36;111.10;;;11.93;;
18838;SDS011;9548;56.920;14.804;2023-04-24T01:05:09;152.38;;;13.30;;
18838;SDS011;9548;56.920;14.804;2023-04-24T01:07:36;198.45;;;14.95;;
18838;SDS011;9548;56.920;14.804;2023-04-24T01:10:04;307.77;;;17.35;;
18838;SDS011;9548;56.920;14.804;2023-04-24T01:12:33;166.70;;;13.95;;
18838;SDS011;9548;56.920;14.804;2023-04-24T01:15:01;140.98;;;13.23;;
18838;SDS011;9548;56.920;14.804;2023-04-24T01:17:30;359.63;;;17.00;;
18838;SDS011;9548;56.920;14.804;2023-04-24T01:19:57;173.02;;;13.82;;
18838;SDS011;9548;56.920;14.804;2023-04-24T01:22:27;161.95;;;14.68;;
18838;SDS011;9548;56.920;14.804;2023-04-24T01:24:54;357.65;;;17.88;;
18838;SDS011;9548;56.920;14.804;2023-04-24T01:27:21;141.27;;;14.50;;
18838;SDS011;9548;56.920;14.804;2023-04-24T01:29:47;437.90;;;22.88;;
18838;SDS011;9548;56.920;14.804;2023-04-24T01:32:17;478.10;;;21.70;;
18838;SDS011;9548;56.920;14.804;2023-04-24T01:34:45;320.70;;;18.02;;
18838;SDS011;9548;56.920;14.804;2023-04-24T01:37:12;368.98;;;19.63;;
18838;SDS011;9548;56.920;14.804;2023-04-24T01:39:41;637.20;;;24.92;;
18838;SDS011;9548;56.920;14.804;2023-04-24T01:42:08;515.15;;;21.58;;
18838;SDS011;9548;56.920;14.804;2023-04-24T01:44:35;358.05;;;20.42;;
18838;SDS011;9548;56.920;14.804;2023-04-24T01:47:02;381.42;;;19.17;;
18838;SDS011;9548;56.920;14.804;2023-04-24T01:49:29;422.55;;;19.98;;
18838;SDS011;9548;56.920;14.804;2023-04-24T01:51:56;276.48;;;16.60;;
18838;SDS011;9548;56.920;14.804;2023-04-24T01:54:23;457.02;;;21.42;;
18838;SDS011;9548;56.920;14.804;2023-04-24T01:56:51;331.55;;;18.15;;
18838;SDS011;9548;56.920;14.804;2023-04-24T01:59:18;281.83;;;18.63;;
18838;SDS011;9548;56.920;14.804;2023-04-24T02:01:47;301.88;;;16.23;;
18838;SDS011;9548;56.920;14.804;2023-04-24T02:04:14;359.60;;;19.95;;
18838;SDS011;9548;56.920;14.804;2023-04-24T02:06:41;241.40;;;16.30;;
18838;SDS011;9548;56.920;14.804;2023-04-24T02:09:08;417.85;;;18.05;;
18838;SDS011;9548;56.920;14.804;2023-04-24T02:11:35;496.63;;;19.17;;
18838;SDS011;9548;56.920;14.804;2023-04-24T02:14:04;179.25;;;14.52;;
18838;SDS011;9548;56.920;14.804;2023-04-24T02:16:31;484.25;;;18.00;;
18838;SDS011;9548;56.920;14.804;2023-04-24T02:18:58;320.83;;;17.75;;
18838;SDS011;9548;56.920;14.804;2023-04-24T02:21:25;558.33;;;18.45;;
18838;SDS011;9548;56.920;14.804;2023-04-24T02:23:53;350.88;;;15.85;;
18838;SDS011;9548;56.920;14.804;2023-04-24T02:26:20;630.80;;;21.83;;
18838;SDS011;9548;56.920;14.804;2023-04-24T02:28:47;617.40;;;20.70;;
18838;SDS011;9548;56.920;14.804;2023-04-24T02:31:15;567.58;;;18.33;;
18838;SDS011;9548;56.920;14.804;2023-04-24T02:33:42;372.52;;;15.25;;
18838;SDS011;9548;56.920;14.804;2023-04-24T02:36:09;343.52;;;15.07;;
18838;SDS011;9548;56.920;14.804;2023-04-24T02:38:36;511.58;;;18.35;;
18838;SDS011;9548;56.920;14.804;2023-04-24T02:41:03;461.35;;;19.05;;
18838;SDS011;9548;56.920;14.804;2023-04-24T02:43:31;661.88;;;25.08;;
18838;SDS011;9548;56.920;14.804;2023-04-24T02:45:58;378.98;;;15.73;;
18838;SDS011;9548;56.920;14.804;2023-04-24T02:48:27;423.83;;;16.73;;
18838;SDS011;9548;56.920;14.804;2023-04-24T02:50:54;221.73;;;13.75;;
18838;SDS011;9548;56.920;14.804;2023-04-24T02:53:22;627.15;;;23.00;;
18838;SDS011;9548;56.920;14.804;2023-04-24T02:55:49;460.67;;;17.85;;
18838;SDS011;9548;56.920;14.804;2023-04-24T02:58:16;289.35;;;17.80;;
18838;SDS011;9548;56.920;14.804;2023-04-24T03:00:45;485.52;;;17.98;;
18838;SDS011;9548;56.920;14.804;2023-04-24T03:03:12;354.27;;;14.02;;
18838;SDS011;9548;56.920;14.804;2023-04-24T03:05:41;265.42;;;13.85;;
18838;SDS011;9548;56.920;14.804;2023-04-24T03:08:08;262.33;;;15.20;;
18838;SDS011;9548;56.920;14.804;2023-04-24T03:10:36;624.38;;;20.15;;
18838;SDS011;9548;56.920;14.804;2023-04-24T03:13:03;429.23;;;15.07;;
18838;SDS011;9548;56.920;14.804;2023-04-24T03:15:30;445.67;;;17.77;;
18838;SDS011;9548;56.920;14.804;2023-04-24T03:17:57;382.80;;;13.90;;
18838;SDS011;9548;56.920;14.804;2023-04-24T03:20:25;406.90;;;13.82;;
18838;SDS011;9548;56.920;14.804;2023-04-24T03:22:53;591.20;;;21.33;;
18838;SDS011;9548;56.920;14.804;2023-04-24T03:25:21;439.95;;;14.93;;
18838;SDS011;9548;56.920;14.804;2023-04-24T03:27:48;333.05;;;12.45;;
18838;SDS011;9548;56.920;14.804;2023-04-24T03:30:15;333.60;;;12.82;;
18838;SDS011;9548;56.920;14.804;2023-04-24T03:32:42;326.85;;;12.68;;
18838;SDS011;9548;56.920;14.804;2023-04-24T03:35:09;236.25;;;10.82;;
18838;SDS011;9548;56.920;14.804;2023-04-24T03:37:36;154.05;;;9.63;;
18838;SDS011;9548;56.920;14.804;2023-04-24T03:40:05;172.70;;;10.38;;
18838;SDS011;9548;56.920;14.804;2023-04-24T03:42:33;237.45;;;12.20;;
18838;SDS011;9548;56.920;14.804;2023-04-24T03:45:00;236.13;;;13.52;;
18838;SDS011;9548;56.920;14.804;2023-04-24T03:47:27;258.15;;;11.02;;
18838;SDS011;9548;56.920;14.804;2023-04-24T03:49:54;352.33;;;12.85;;
18838;SDS011;9548;56.920;14.804;2023-04-24T03:52:20;298.73;;;14.80;;
18838;SDS011;9548;56.920;14.804;2023-04-24T03:54:48;230.68;;;12.48;;
18838;SDS011;9548;56.920;14.804;2023-04-24T03:57:16;233.35;;;10.80;;
18838;SDS011;9548;56.920;14.804;2023-04-24T03:59:43;211.13;;;10.82;;
18838;SDS011;9548;56.920;14.804;2023-04-24T04:02:10;282.65;;;11.95;;
18838;SDS011;9548;56.920;14.804;2023-04-24T04:04:37;200.50;;;11.60;;
18838;SDS011;9548;56.920;14.804;2023-04-24T04:07:04;165.35;;;12.68;;
18838;SDS011;9548;56.920;14.804;2023-04-24T04:09:31;186.82;;;10.57;;
18838;SDS011;9548;56.920;14.804;2023-04-24T04:11:59;368.55;;;13.70;;
18838;SDS011;9548;56.920;14.804;2023-04-24T04:14:27;329.60;;;14.73;;
18838;SDS011;9548;56.920;14.804;2023-04-24T04:16:54;347.17;;;13.45;;
18838;SDS011;9548;56.920;14.804;2023-04-24T04:19:21;330.75;;;13.50;;
18838;SDS011;9548;56.920;14.804;2023-04-24T04:21:48;302.08;;;15.32;;
18838;SDS011;9548;56.920;14.804;2023-04-24T04:24:18;167.63;;;11.48;;
18838;SDS011;9548;56.920;14.804;2023-04-24T04:26:45;193.13;;;10.60;;
18838;SDS011;9548;56.920;14.804;2023-04-24T04:29:12;90.28;;;10.40;;
18838;SDS011;9548;56.920;14.804;2023-04-24T04:31:41;165.73;;;10.65;;
18838;SDS011;9548;56.920;14.804;2023-04-24T04:34:08;95.18;;;10.25;;
18838;SDS011;9548;56.920;14.804;2023-04-24T04:36:36;97.57;;;10.60;;
18838;SDS011;9548;56.920;14.804;2023-04-24T04:39:05;174.27;;;13.02;;
18838;SDS011;9548;56.920;14.804;2023-04-24T04:41:32;156.77;;;10.20;;
18838;SDS011;9548;56.920;14.804;2023-04-24T04:44:00;139.88;;;12.75;;
18838;SDS011;9548;56.920;14.804;2023-04-24T04:46:29;147.48;;;11.52;;
18838;SDS011;9548;56.920;14.804;2023-04-24T04:49:01;164.93;;;11.98;;
18838;SDS011;9548;56.920;14.804;2023-04-24T04:51:28;101.85;;;11.20;;
18838;SDS011;9548;56.920;14.804;2023-04-24T04:53:55;237.68;;;14.93;;
18838;SDS011;9548;56.920;14.804;2023-04-24T04:56:22;166.43;;;12.52;;
18838;SDS011;9548;56.920;14.804;2023-04-24T04:58:49;75.90;;;10.15;;
18838;SDS011;9548;56.920;14.804;2023-04-24T05:01:16;185.13;;;12.27;;
18838;SDS011;9548;56.920;14.804;2023-04-24T05:03:43;196.45;;;12.88;;
18838;SDS011;9548;56.920;14.804;2023-04-24T05:06:11;164.15;;;13.60;;
18838;SDS011;9548;56.920;14.804;2023-04-24T05:08:39;182.73;;;11.95;;
18838;SDS011;9548;56.920;14.804;2023-04-24T05:11:05;219.70;;;12.50;;
18838;SDS011;9548;56.920;14.804;2023-04-24T05:13:32;115.88;;;10.20;;
18838;SDS011;9548;56.920;14.804;2023-04-24T05:15:59;190.77;;;11.90;;
18838;SDS011;9548;56.920;14.804;2023-04-24T05:18:26;88.43;;;11.35;;
18838;SDS011;9548;56.920;14.804;2023-04-24T05:20:53;53.38;;;10.30;;
18838;SDS011;9548;56.920;14.804;2023-04-24T05:23:22;114.75;;;11.13;;
18838;SDS011;9548;56.920;14.804;2023-04-24T05:25:49;133.50;;;10.85;;
18838;SDS011;9548;56.920;14.804;2023-04-24T05:28:16;185.77;;;12.13;;
18838;SDS011;9548;56.920;14.804;2023-04-24T05:30:46;60.30;;;10.73;;
18838;SDS011;9548;56.920;14.804;2023-04-24T05:33:13;49.13;;;10.13;;
18838;SDS011;9548;56.920;14.804;2023-04-24T05:35:40;58.20;;;10.32;;
18838;SDS011;9548;56.920;14.804;2023-04-24T05:38:10;75.72;;;11.02;;
18838;SDS011;9548;56.920;14.804;2023-04-24T05:40:39;60.75;;;10.10;;
18838;SDS011;9548;56.920;14.804;2023-04-24T05:43:06;50.35;;;9.98;;
18838;SDS011;9548;56.920;14.804;2023-04-24T05:45:33;74.53;;;10.23;;
18838;SDS011;9548;56.920;14.804;2023-04-24T05:48:01;78.55;;;10.00;;
18838;SDS011;9548;56.920;14.804;2023-04-24T05:50:28;79.50;;;9.88;;
18838;SDS011;9548;56.920;14.804;2023-04-24T05:52:55;21.58;;;8.63;;
18838;SDS011;9548;56.920;14.804;2023-04-24T05:55:23;36.30;;;9.00;;
18838;SDS011;9548;56.920;14.804;2023-04-24T05:57:51;37.55;;;8.90;;
18838;SDS011;9548;56.920;14.804;2023-04-24T06:00:18;20.42;;;8.55;;
18838;SDS011;9548;56.920;14.804;2023-04-24T06:02:45;26.67;;;8.10;;
18838;SDS011;9548;56.920;14.804;2023-04-24T06:05:12;13.48;;;8.43;;
18838;SDS011;9548;56.920;14.804;2023-04-24T06:07:39;16.48;;;7.50;;
18838;SDS011;9548;56.920;14.804;2023-04-24T06:10:07;35.10;;;8.00;;
18838;SDS011;9548;56.920;14.804;2023-04-24T06:12:34;35.67;;;7.90;;
18838;SDS011;9548;56.920;14.804;2023-04-24T06:15:03;18.40;;;8.07;;
18838;SDS011;9548;56.920;14.804;2023-04-24T06:17:30;11.35;;;7.57;;
18838;SDS011;9548;56.920;14.804;2023-04-24T06:19:58;12.88;;;8.00;;
18838;SDS011;9548;56.920;14.804;2023-04-24T06:22:25;11.50;;;8.07;;
18838;SDS011;9548;56.920;14.804;2023-04-24T06:24:51;14.32;;;7.47;;
18838;SDS011;9548;56.920;14.804;2023-04-24T06:27:18;9.98;;;7.40;;
18838;SDS011;9548;56.920;14.804;2023-04-24T06:29:45;10.93;;;7.47;;
18838;SDS011;9548;56.920;14.804;2023-04-24T06:32:19;13.50;;;7.78;;
18838;SDS011;9548;56.920;14.804;2023-04-24T06:34:46;10.52;;;7.82;;
18838;SDS011;9548;56.920;14.804;2023-04-24T06:37:12;11.88;;;7.65;;
18838;SDS011;9548;56.920;14.804;2023-04-24T06:39:41;10.65;;;7.80;;
18838;SDS011;9548;56.920;14.804;2023-04-24T06:42:08;10.88;;;8.07;;
18838;SDS011;9548;56.920;14.804;2023-04-24T06:44:35;11.70;;;8.43;;
18838;SDS011;9548;56.920;14.804;2023-04-24T06:47:05;12.48;;;8.48;;
18838;SDS011;9548;56.920;14.804;2023-04-24T06:49:34;11.80;;;8.55;;
18838;SDS011;9548;56.920;14.804;2023-04-24T06:52:01;14.68;;;8.75;;
18838;SDS011;9548;56.920;14.804;2023-04-24T06:54:28;10.63;;;8.25;;
18838;SDS011;9548;56.920;14.804;2023-04-24T06:56:55;13.07;;;9.05;;
18838;SDS011;9548;56.920;14.804;2023-04-24T06:59:23;11.65;;;8.05;;
18838;SDS011;9548;56.920;14.804;2023-04-24T07:01:50;11.43;;;7.88;;
18838;SDS011;9548;56.920;14.804;2023-04-24T07:04:17;12.75;;;8.07;;
18838;SDS011;9548;56.920;14.804;2023-04-24T07:06:46;11.60;;;7.43;;
18838;SDS011;9548;56.920;14.804;2023-04-24T07:09:16;9.80;;;7.50;;
18838;SDS011;9548;56.920;14.804;2023-04-24T07:11:43;10.90;;;7.68;;
18838;SDS011;9548;56.920;14.804;2023-04-24T07:14:10;11.40;;;8.10;;
18838;SDS011;9548;56.920;14.804;2023-04-24T07:16:37;13.20;;;7.85;;
18838;SDS011;9548;56.920;14.804;2023-04-24T07:19:05;11.55;;;7.82;;
18838;SDS011;9548;56.920;14.804;2023-04-24T07:21:32;10.07;;;7.25;;
18838;SDS011;9548;56.920;14.804;2023-04-24T07:24:01;11.60;;;7.70;;
18838;SDS011;9548;56.920;14.804;2023-04-24T07:26:28;10.57;;;7.50;;
18838;SDS011;9548;56.920;14.804;2023-04-24T07:28:57;10.48;;;7.40;;
18838;SDS011;9548;56.920;14.804;2023-04-24T07:31:25;11.18;;;7.32;;
18838;SDS011;9548;56.920;14.804;2023-04-24T07:33:51;10.50;;;7.10;;
18838;SDS011;9548;56.920;14.804;2023-04-24T07:36:18;9.90;;;6.82;;
18838;SDS011;9548;56.920;14.804;2023-04-24T07:38:45;10.52;;;6.95;;
18838;SDS011;9548;56.920;14.804;2023-04-24T07:41:13;8.38;;;6.05;;
18838;SDS011;9548;56.920;14.804;2023-04-24T07:43:41;7.95;;;5.78;;
18838;SDS011;9548;56.920;14.804;2023-04-24T07:46:08;10.70;;;5.00;;
18838;SDS011;9548;56.920;14.804;2023-04-24T07:48:35;7.38;;;5.32;;
18838;SDS011;9548;56.920;14.804;2023-04-24T07:51:03;8.18;;;5.32;;
18838;SDS011;9548;56.920;14.804;2023-04-24T07:53:30;6.47;;;4.70;;
18838;SDS011;9548;56.920;14.804;2023-04-24T07:55:56;6.10;;;5.03;;
18838;SDS011;9548;56.920;14.804;2023-04-24T07:58:25;6.63;;;4.95;;
18838;SDS011;9548;56.920;14.804;2023-04-24T08:00:52;6.57;;;4.85;;
18838;SDS011;9548;56.920;14.804;2023-04-24T08:03:19;7.15;;;4.30;;
18838;SDS011;9548;56.920;14.804;2023-04-24T08:05:46;5.68;;;4.30;;
18838;SDS011;9548;56.920;14.804;2023-04-24T08:08:15;5.43;;;4.00;;
18838;SDS011;9548;56.920;14.804;2023-04-24T08:10:42;6.30;;;4.13;;
18838;SDS011;9548;56.920;14.804;2023-04-24T08:13:10;7.68;;;4.10;;
18838;SDS011;9548;56.920;14.804;2023-04-24T08:15:39;5.75;;;4.07;;
18838;SDS011;9548;56.920;14.804;2023-04-24T08:18:05;7.45;;;3.80;;
18838;SDS011;9548;56.920;14.804;2023-04-24T08:20:33;5.35;;;3.75;;
18838;SDS011;9548;56.920;14.804;2023-04-24T08:23:01;4.97;;;3.90;;
18838;SDS011;9548;56.920;14.804;2023-04-24T08:25:28;4.90;;;3.90;;
18838;SDS011;9548;56.920;14.804;2023-04-24T08:27:55;6.25;;;4.15;;
18838;SDS011;9548;56.920;14.804;2023-04-24T08:30:22;5.43;;;4.32;;
18838;SDS011;9548;56.920;14.804;2023-04-24T08:32:51;5.70;;;4.00;;
18838;SDS011;9548;56.920;14.804;2023-04-24T08:35:17;6.88;;;4.55;;
18838;SDS011;9548;56.920;14.804;2023-04-24T08:37:44;8.73;;;4.65;;
18838;SDS011;9548;56.920;14.804;2023-04-24T08:40:12;6.43;;;4.35;;
18838;SDS011;9548;56.920;14.804;2023-04-24T08:42:41;5.40;;;4.47;;
18838;SDS011;9548;56.920;14.804;2023-04-24T08:45:09;6.18;;;4.38;;
18838;SDS011;9548;56.920;14.804;2023-04-24T08:47:38;5.45;;;4.45;;
18838;SDS011;9548;56.920;14.804;2023-04-24T08:50:07;6.03;;;4.63;;
18838;SDS011;9548;56.920;14.804;2023-04-24T08:52:35;8.35;;;4.57;;
18838;SDS011;9548;56.920;14.804;2023-04-24T08:55:02;9.77;;;4.30;;
18838;SDS011;9548;56.920;14.804;2023-04-24T08:57:30;8.88;;;4.72;;
18838;SDS011;9548;56.920;14.804;2023-04-24T08:59:58;5.88;;;4.63;;
18838;SDS011;9548;56.920;14.804;2023-04-24T09:02:26;6.00;;;4.43;;
18838;SDS011;9548;56.920;14.804;2023-04-24T09:04:53;6.88;;;4.45;;
18838;SDS011;9548;56.920;14.804;2023-04-24T09:07:24;5.45;;;4.20;;
18838;SDS011;9548;56.920;14.804;2023-04-24T09:09:53;5.68;;;4.03;;
18838;SDS011;9548;56.920;14.804;2023-04-24T09:12:21;4.97;;;4.00;;
18838;SDS011;9548;56.920;14.804;2023-04-24T09:14:48;5.97;;;4.10;;
18838;SDS011;9548;56.920;14.804;2023-04-24T09:17:16;4.82;;;3.80;;
18838;SDS011;9548;56.920;14.804;2023-04-24T09:19:43;9.52;;;4.00;;
18838;SDS011;9548;56.920;14.804;2023-04-24T09:22:10;4.35;;;3.42;;
18838;SDS011;9548;56.920;14.804;2023-04-24T09:24:39;7.38;;;4.05;;
18838;SDS011;9548;56.920;14.804;2023-04-24T09:27:06;5.00;;;3.70;;
18838;SDS011;9548;56.920;14.804;2023-04-24T09:29:33;4.45;;;3.60;;
18838;SDS011;9548;56.920;14.804;2023-04-24T09:32:04;6.72;;;3.80;;
18838;SDS011;9548;56.920;14.804;2023-04-24T09:34:47;5.32;;;4.00;;
18838;SDS011;9548;56.920;14.804;2023-04-24T09:37:20;4.40;;;3.65;;
18838;SDS011;9548;56.920;14.804;2023-04-24T09:40:08;5.30;;;3.63;;
18838;SDS011;9548;56.920;14.804;2023-04-24T09:42:39;5.32;;;3.50;;
18838;SDS011;9548;56.920;14.804;2023-04-24T09:45:09;3.88;;;3.13;;
18838;SDS011;9548;56.920;14.804;2023-04-24T09:47:37;5.47;;;3.30;;
18838;SDS011;9548;56.920;14.804;2023-04-24T09:50:11;6.47;;;3.20;;
18838;SDS011;9548;56.920;14.804;2023-04-24T09:52:40;5.05;;;3.00;;
18838;SDS011;9548;56.920;14.804;2023-04-24T09:55:20;4.80;;;2.92;;
18838;SDS011;9548;56.920;14.804;2023-04-24T09:57:47;5.32;;;3.10;;
18838;SDS011;9548;56.920;14.804;2023-04-24T10:00:21;5.45;;;3.38;;
18838;SDS011;9548;56.920;14.804;2023-04-24T10:02:54;3.38;;;2.50;;
18838;SDS011;9548;56.920;14.804;2023-04-24T10:05:26;3.13;;;2.72;;
18838;SDS011;9548;56.920;14.804;2023-04-24T10:07:57;4.57;;;2.90;;
18838;SDS011;9548;56.920;14.804;2023-04-24T10:10:28;5.93;;;2.72;;
18838;SDS011;9548;56.920;14.804;2023-04-24T10:12:55;2.92;;;2.53;;
18838;SDS011;9548;56.920;14.804;2023-04-24T10:15:22;3.33;;;2.42;;
18838;SDS011;9548;56.920;14.804;2023-04-24T10:17:49;2.95;;;2.35;;
18838;SDS011;9548;56.920;14.804;2023-04-24T10:20:19;3.58;;;2.60;;
18838;SDS011;9548;56.920;14.804;2023-04-24T10:22:47;3.60;;;2.60;;
18838;SDS011;9548;56.920;14.804;2023-04-24T10:25:16;3.42;;;2.30;;
18838;SDS011;9548;56.920;14.804;2023-04-24T10:27:46;2.45;;;2.00;;
18838;SDS011;9548;56.920;14.804;2023-04-24T10:30:14;6.43;;;2.70;;
18838;SDS011;9548;56.920;14.804;2023-04-24T10:32:41;2.90;;;2.38;;
18838;SDS011;9548;56.920;14.804;2023-04-24T10:35:08;3.83;;;2.40;;
18838;SDS011;9548;56.920;14.804;2023-04-24T10:37:36;3.67;;;2.42;;
18838;SDS011;9548;56.920;14.804;2023-04-24T10:40:06;4.60;;;1.98;;
18838;SDS011;9548;56.920;14.804;2023-04-24T10:42:34;3.55;;;2.10;;
18838;SDS011;9548;56.920;14.804;2023-04-24T10:45:07;2.42;;;2.22;;
18838;SDS011;9548;56.920;14.804;2023-04-24T10:47:47;2.63;;;2.30;;
18838;SDS011;9548;56.920;14.804;2023-04-24T10:50:18;2.25;;;2.05;;
18838;SDS011;9548;56.920;14.804;2023-04-24T10:52:45;2.45;;;2.10;;
18838;SDS011;9548;56.920;14.804;2023-04-24T10:55:13;2.13;;;1.92;;
18838;SDS011;9548;56.920;14.804;2023-04-24T10:58:00;2.20;;;2.00;;
18838;SDS011;9548;56.920;14.804;2023-04-24T11:00:29;4.43;;;2.03;;
18838;SDS011;9548;56.920;14.804;2023-04-24T11:02:57;3.80;;;1.95;;
18838;SDS011;9548;56.920;14.804;2023-04-24T11:05:49;7.32;;;2.90;;
18838;SDS011;9548;56.920;14.804;2023-04-24T11:08:22;4.13;;;1.98;;
18838;SDS011;9548;56.920;14.804;2023-04-24T11:10:54;2.60;;;2.00;;
18838;SDS011;9548;56.920;14.804;2023-04-24T11:13:27;2.33;;;1.85;;
18838;SDS011;9548;56.920;14.804;2023-04-24T11:16:16;2.00;;;1.80;;
18838;SDS011;9548;56.920;14.804;2023-04-24T11:18:50;2.75;;;1.88;;
18838;SDS011;9548;56.920;14.804;2023-04-24T11:21:19;2.33;;;1.60;;
18838;SDS011;9548;56.920;14.804;2023-04-24T11:23:46;2.55;;;1.70;;
18838;SDS011;9548;56.920;14.804;2023-04-24T11:26:17;1.63;;;1.50;;
18838;SDS011;9548;56.920;14.804;2023-04-24T11:28:48;1.60;;;1.45;;
18838;SDS011;9548;56.920;14.804;2023-04-24T11:31:36;1.92;;;1.60;;
18838;SDS011;9548;56.920;14.804;2023-04-24T11:34:10;9.07;;;1.50;;
18838;SDS011;9548;56.920;14.804;2023-04-24T11:36:39;1.80;;;1.45;;
18838;SDS011;9548;56.920;14.804;2023-04-24T11:39:06;1.60;;;1.50;;
18838;SDS011;9548;56.920;14.804;2023-04-24T11:41:34;1.70;;;1.60;;
18838;SDS011;9548;56.920;14.804;2023-04-24T11:44:01;1.95;;;1.30;;
18838;SDS011;9548;56.920;14.804;2023-04-24T11:46:29;2.05;;;1.30;;
18838;SDS011;9548;56.920;14.804;2023-04-24T11:48:58;2.25;;;1.40;;
18838;SDS011;9548;56.920;14.804;2023-04-24T11:51:26;1.55;;;1.40;;
18838;SDS011;9548;56.920;14.804;2023-04-24T11:53:54;1.60;;;1.50;;
18838;SDS011;9548;56.920;14.804;2023-04-24T11:56:21;1.58;;;1.35;;
18838;SDS011;9548;56.920;14.804;2023-04-24T11:58:51;1.35;;;1.25;;
18838;SDS011;9548;56.920;14.804;2023-04-24T12:01:19;3.03;;;1.30;;
18838;SDS011;9548;56.920;14.804;2023-04-24T12:03:47;1.38;;;1.27;;
18838;SDS011;9548;56.920;14.804;2023-04-24T12:06:17;1.73;;;1.55;;
18838;SDS011;9548;56.920;14.804;2023-04-24T12:08:48;1.67;;;1.40;;
18838;SDS011;9548;56.920;14.804;2023-04-24T12:11:15;1.42;;;1.33;;
18838;SDS011;9548;56.920;14.804;2023-04-24T12:13:45;6.68;;;1.33;;
18838;SDS011;9548;56.920;14.804;2023-04-24T12:16:12;1.50;;;1.40;;
18838;SDS011;9548;56.920;14.804;2023-04-24T12:18:43;1.77;;;1.35;;
18838;SDS011;9548;56.920;14.804;2023-04-24T12:21:19;1.25;;;1.10;;
18838;SDS011;9548;56.920;14.804;2023-04-24T12:23:46;1.45;;;1.35;;
18838;SDS011;9548;56.920;14.804;2023-04-24T12:26:16;4.53;;;1.50;;
18838;SDS011;9548;56.920;14.804;2023-04-24T12:28:46;3.45;;;1.38;;
18838;SDS011;9548;56.920;14.804;2023-04-24T12:31:15;2.38;;;1.48;;
18838;SDS011;9548;56.920;14.804;2023-04-24T12:33:42;2.30;;;1.33;;
18838;SDS011;9548;56.920;14.804;2023-04-24T12:36:10;1.48;;;1.38;;
18838;SDS011;9548;56.920;14.804;2023-04-24T12:38:43;1.42;;;1.10;;
18838;SDS011;9548;56.920;14.804;2023-04-24T12:41:11;1.42;;;1.33;;
18838;SDS011;9548;56.920;14.804;2023-04-24T12:43:50;2.42;;;1.48;;
18838;SDS011;9548;56.920;14.804;2023-04-24T12:46:18;2.10;;;1.30;;
18838;SDS011;9548;56.920;14.804;2023-04-24T12:48:45;1.70;;;1.45;;
18838;SDS011;9548;56.920;14.804;2023-04-24T12:51:12;3.60;;;1.17;;
18838;SDS011;9548;56.920;14.804;2023-04-24T12:53:40;3.17;;;1.33;;
18838;SDS011;9548;56.920;14.804;2023-04-24T12:56:07;1.48;;;1.38;;
18838;SDS011;9548;56.920;14.804;2023-04-24T12:58:34;1.85;;;1.35;;
18838;SDS011;9548;56.920;14.804;2023-04-24T13:01:01;3.10;;;1.60;;
18838;SDS011;9548;56.920;14.804;2023-04-24T13:03:28;3.08;;;1.52;;
18838;SDS011;9548;56.920;14.804;2023-04-24T13:05:55;1.42;;;1.30;;
18838;SDS011;9548;56.920;14.804;2023-04-24T13:08:22;2.95;;;1.42;;
18838;SDS011;9548;56.920;14.804;2023-04-24T13:10:50;1.33;;;1.23;;
18838;SDS011;9548;56.920;14.804;2023-04-24T13:13:18;2.70;;;1.52;;
18838;SDS011;9548;56.920;14.804;2023-04-24T13:15:45;2.30;;;1.40;;
18838;SDS011;9548;56.920;14.804;2023-04-24T13:18:12;1.75;;;1.25;;
18838;SDS011;9548;56.920;14.804;2023-04-24T13:20:39;1.25;;;1.17;;
18838;SDS011;9548;56.920;14.804;2023-04-24T13:23:06;1.52;;;1.20;;
18838;SDS011;9548;56.920;14.804;2023-04-24T13:25:34;2.45;;;1.58;;
18838;SDS011;9548;56.920;14.804;2023-04-24T13:28:05;1.48;;;1.38;;
18838;SDS011;9548;56.920;14.804;2023-04-24T13:30:32;1.65;;;1.48;;
18838;SDS011;9548;56.920;14.804;2023-04-24T13:32:59;1.88;;;1.30;;
18838;SDS011;9548;56.920;14.804;2023-04-24T13:35:26;1.30;;;1.20;;
18838;SDS011;9548;56.920;14.804;2023-04-24T13:37:53;1.63;;;1.30;;
18838;SDS011;9548;56.920;14.804;2023-04-24T13:40:20;4.55;;;1.40;;
18838;SDS011;9548;56.920;14.804;2023-04-24T13:42:47;1.42;;;1.25;;
18838;SDS011;9548;56.920;14.804;2023-04-24T13:45:15;1.52;;;1.40;;
18838;SDS011;9548;56.920;14.804;2023-04-24T13:47:42;2.17;;;1.40;;
18838;SDS011;9548;56.920;14.804;2023-04-24T13:50:09;1.40;;;1.30;;
18838;SDS011;9548;56.920;14.804;2023-04-24T13:52:36;2.35;;;1.50;;
18838;SDS011;9548;56.920;14.804;2023-04-24T13:55:03;2.22;;;1.27;;
18838;SDS011;9548;56.920;14.804;2023-04-24T13:57:31;1.48;;;1.20;;
18838;SDS011;9548;56.920;14.804;2023-04-24T13:59:58;1.67;;;1.00;;
18838;SDS011;9548;56.920;14.804;2023-04-24T14:02:27;5.38;;;1.40;;
18838;SDS011;9548;56.920;14.804;2023-04-24T14:04:54;4.20;;;1.27;;
18838;SDS011;9548;56.920;14.804;2023-04-24T14:07:21;2.88;;;1.40;;
18838;SDS011;9548;56.920;14.804;2023-04-24T14:09:48;1.50;;;1.38;;
18838;SDS011;9548;56.920;14.804;2023-04-24T14:12:16;2.95;;;1.20;;
18838;SDS011;9548;56.920;14.804;2023-04-24T14:14:44;1.45;;;1.30;;
18838;SDS011;9548;56.920;14.804;2023-04-24T14:17:13;1.25;;;1.10;;
18838;SDS011;9548;56.920;14.804;2023-04-24T14:19:41;2.50;;;1.30;;
18838;SDS011;9548;56.920;14.804;2023-04-24T14:22:08;0.98;;;0.98;;
18838;SDS011;9548;56.920;14.804;2023-04-24T14:24:35;1.20;;;1.10;;
18838;SDS011;9548;56.920;14.804;2023-04-24T14:27:02;0.98;;;0.98;;
18838;SDS011;9548;56.920;14.804;2023-04-24T14:29:29;1.83;;;1.10;;
18838;SDS011;9548;56.920;14.804;2023-04-24T14:31:56;1.20;;;1.10;;
18838;SDS011;9548;56.920;14.804;2023-04-24T14:34:23;2.45;;;1.23;;
18838;SDS011;9548;56.920;14.804;2023-04-24T14:36:52;3.58;;;1.05;;